createdAt,value
2023-05-16T00:01:35.581Z,101205.94
2023-05-16T00:04:04.680Z,101209.16
2023-05-16T00:06:33.295Z,101217.78
2023-05-16T00:09:01.121Z,101212.56
2023-05-16T00:11:29.191Z,101222.19
2023-05-16T00:13:57.306Z,101219.75
2023-05-16T00:16:29.357Z,101227.47
2023-05-16T00:18:57.679Z,101222.72
2023-05-16T00:21:26.075Z,101226.53
2023-05-16T00:23:53.924Z,101230.59
2023-05-16T00:26:21.770Z,101231.06
2023-05-16T00:28:49.897Z,101228.59
2023-05-16T00:31:17.726Z,101238.19
2023-05-16T00:33:47.075Z,101242.16
2023-05-16T00:36:14.911Z,101237.41
2023-05-16T00:38:42.695Z,101243.38
2023-05-16T00:41:10.444Z,101234.56
2023-05-16T00:43:39.585Z,101242.41
2023-05-16T00:46:07.459Z,101238.25
2023-05-16T00:48:36.692Z,101243.19
2023-05-16T00:51:09.264Z,101248.84
2023-05-16T00:53:37.700Z,101244.22
2023-05-16T00:56:07.228Z,101247.84
2023-05-16T00:58:35.370Z,101244.72
2023-05-16T01:01:03.995Z,101251.56
2023-05-16T01:03:32.531Z,101237.19
2023-05-16T01:06:01.072Z,101244.19
2023-05-16T01:08:30.394Z,101245.34
2023-05-16T01:11:03.808Z,101248.41
2023-05-16T01:13:38.193Z,101252.75
2023-05-16T01:16:11.717Z,101250.47
2023-05-16T01:18:44.344Z,101261.03
2023-05-16T01:21:19.922Z,101255.13
2023-05-16T01:24:01.746Z,101260.03
2023-05-16T01:26:32.364Z,101268.03
2023-05-16T01:29:03.864Z,101274.88
2023-05-16T01:31:31.987Z,101269.78
2023-05-16T01:33:59.866Z,101267.50
2023-05-16T01:36:34.236Z,101273.00
2023-05-16T01:39:15.255Z,101279.66
2023-05-16T01:41:54.903Z,101289.06
2023-05-16T01:44:28.010Z,101289.66
2023-05-16T01:46:59.039Z,101283.59
2023-05-16T01:49:34.629Z,101296.75
2023-05-16T01:52:08.967Z,101301.66
2023-05-16T01:54:39.498Z,101307.75
2023-05-16T01:57:10.541Z,101308.06
2023-05-16T01:59:40.161Z,101318.63
2023-05-16T02:02:07.928Z,101310.81
2023-05-16T02:04:35.773Z,101317.59
2023-05-16T02:07:03.596Z,101318.91
2023-05-16T02:09:31.427Z,101326.44
2023-05-16T02:12:00.766Z,101319.41
2023-05-16T02:14:29.900Z,101325.97
2023-05-16T02:16:58.842Z,101323.63
2023-05-16T02:19:26.659Z,101331.44
2023-05-16T02:21:54.440Z,101328.97
2023-05-16T02:24:22.638Z,101327.34
2023-05-16T02:26:50.423Z,101329.41
2023-05-16T02:29:18.462Z,101336.03
2023-05-16T02:31:47.698Z,101338.78
2023-05-16T02:34:15.927Z,101349.19
2023-05-16T02:36:43.809Z,101335.59
2023-05-16T02:39:11.704Z,101342.97
2023-05-16T02:41:40.284Z,101349.34
2023-05-16T02:44:09.691Z,101347.75
2023-05-16T02:46:37.601Z,101346.00
2023-05-16T02:49:06.894Z,101358.72
2023-05-16T02:51:34.682Z,101356.25
2023-05-16T02:54:02.699Z,101372.88
2023-05-16T02:56:30.612Z,101368.41
2023-05-16T02:58:58.368Z,101375.91
2023-05-16T03:01:26.332Z,101379.81
2023-05-16T03:03:54.196Z,101372.56
2023-05-16T03:06:23.777Z,101377.06
2023-05-16T03:08:51.546Z,101379.94
2023-05-16T03:11:22.312Z,101371.81
2023-05-16T03:13:50.417Z,101376.47
2023-05-16T03:16:18.338Z,101381.25
2023-05-16T03:18:46.216Z,101372.25
2023-05-16T03:21:14.097Z,101374.13
2023-05-16T03:23:43.377Z,101376.75
2023-05-16T03:26:11.491Z,101383.50
2023-05-16T03:28:39.400Z,101375.56
2023-05-16T03:31:07.433Z,101386.69
2023-05-16T03:33:35.430Z,101393.31
2023-05-16T03:36:03.585Z,101387.13
2023-05-16T03:38:32.487Z,101397.34
2023-05-16T03:41:01.878Z,101401.84
2023-05-16T03:43:30.052Z,101404.00
2023-05-16T03:45:57.857Z,101393.13
2023-05-16T03:48:25.736Z,101410.63
2023-05-16T03:50:53.547Z,101409.03
2023-05-16T03:53:21.485Z,101407.41
2023-05-16T03:55:49.295Z,101414.03
2023-05-16T03:58:18.528Z,101424.16
2023-05-16T04:00:46.835Z,101415.34
2023-05-16T04:03:14.867Z,101427.59
2023-05-16T04:05:43.247Z,101428.75
2023-05-16T04:08:11.235Z,101424.38
2023-05-16T04:10:39.263Z,101438.38
2023-05-16T04:13:07.168Z,101445.03
2023-05-16T04:15:36.345Z,101446.84
2023-05-16T04:18:09.060Z,101441.63
2023-05-16T04:20:37.034Z,101444.88
2023-05-16T04:23:04.856Z,101448.66
2023-05-16T04:25:32.782Z,101455.75
2023-05-16T04:28:00.765Z,101460.22
2023-05-16T04:30:28.518Z,101455.75
2023-05-16T04:32:59.413Z,101468.34
2023-05-16T04:35:28.411Z,101475.00
2023-05-16T04:37:56.913Z,101482.34
2023-05-16T04:40:25.398Z,101486.09
2023-05-16T04:42:54.517Z,101489.84
2023-05-16T04:45:22.492Z,101488.84
2023-05-16T04:47:51.481Z,101486.22
2023-05-16T04:50:20.787Z,101484.22
2023-05-16T04:52:48.542Z,101485.34
2023-05-16T04:55:16.593Z,101494.47
2023-05-16T04:57:44.487Z,101494.59
2023-05-16T05:00:13.712Z,101498.06
2023-05-16T05:02:41.483Z,101492.72
2023-05-16T05:05:10.431Z,101496.94
2023-05-16T05:07:40.862Z,101500.28
2023-05-16T05:10:09.577Z,101511.88
2023-05-16T05:12:38.131Z,101513.38
2023-05-16T05:15:07.250Z,101512.72
2023-05-16T05:17:35.131Z,101519.59
2023-05-16T05:20:06.844Z,101521.66
2023-05-16T05:22:34.732Z,101521.88
2023-05-16T05:25:03.989Z,101515.56
2023-05-16T05:27:31.907Z,101527.88
2023-05-16T05:29:59.640Z,101532.72
2023-05-16T05:32:27.661Z,101530.16
2023-05-16T05:34:55.709Z,101535.09
2023-05-16T05:37:23.531Z,101535.59
2023-05-16T05:39:51.364Z,101543.28
2023-05-16T05:42:20.650Z,101548.09
2023-05-16T05:44:48.640Z,101538.59
2023-05-16T05:47:16.788Z,101550.81
2023-05-16T05:49:44.974Z,101552.13
2023-05-16T05:52:12.925Z,101548.81
2023-05-16T05:54:40.783Z,101553.75
2023-05-16T05:57:09.887Z,101559.72
2023-05-16T05:59:39.083Z,101562.53
2023-05-16T06:02:07.541Z,101552.09
2023-05-16T06:04:35.411Z,101555.16
2023-05-16T06:07:03.716Z,101562.00
2023-05-16T06:09:31.479Z,101569.69
2023-05-16T06:12:00.109Z,101570.84
2023-05-16T06:14:28.023Z,101565.97
2023-05-16T06:16:57.321Z,101575.38
2023-05-16T06:19:25.296Z,101584.22
2023-05-16T06:21:53.242Z,101581.06
2023-05-16T06:24:21.855Z,101579.50
2023-05-16T06:26:50.782Z,101589.06
2023-05-16T06:29:18.625Z,101594.91
2023-05-16T06:31:47.487Z,101590.56
2023-05-16T06:34:16.749Z,101588.97
2023-05-16T06:36:44.772Z,101587.50
2023-05-16T06:39:12.516Z,101586.78
2023-05-16T06:41:40.449Z,101587.94
2023-05-16T06:44:12.504Z,101594.66
2023-05-16T06:46:40.465Z,101589.97
2023-05-16T06:49:08.338Z,101582.72
2023-05-16T06:51:37.673Z,101587.19
2023-05-16T06:54:05.731Z,101599.41
2023-05-16T06:56:33.890Z,101594.91
2023-05-16T06:59:02.539Z,101596.75
2023-05-16T07:01:30.560Z,101598.91
2023-05-16T07:03:58.604Z,101595.25
2023-05-16T07:06:26.731Z,101598.59
2023-05-16T07:08:55.934Z,101596.97
2023-05-16T07:11:23.935Z,101601.78
2023-05-16T07:13:52.017Z,101596.53
2023-05-16T07:16:19.926Z,101602.38
2023-05-16T07:18:47.883Z,101595.72
2023-05-16T07:21:15.936Z,101611.69
2023-05-16T07:23:43.964Z,101610.56
2023-05-16T07:26:15.221Z,101607.38
2023-05-16T07:28:45.241Z,101617.56
2023-05-16T07:31:19.888Z,101622.63
2023-05-16T07:34:41.911Z,101617.53
2023-05-16T07:37:13.040Z,101622.19
2023-05-16T07:39:41.139Z,101616.38
2023-05-16T07:42:10.937Z,101613.22
2023-05-16T07:44:39.142Z,101623.94
2023-05-16T07:47:07.804Z,101606.81
2023-05-16T07:49:35.864Z,101623.50
2023-05-16T07:52:03.744Z,101616.97
2023-05-16T07:54:32.329Z,101625.66
2023-05-16T07:57:00.375Z,101630.75
2023-05-16T07:59:29.704Z,101625.38
2023-05-16T08:01:57.733Z,101614.63
2023-05-16T08:04:25.966Z,101622.19
2023-05-16T08:06:54.004Z,101613.31
2023-05-16T08:09:21.951Z,101620.00
2023-05-16T08:11:49.920Z,101616.84
2023-05-16T08:14:18.769Z,101617.09
2023-05-16T08:16:48.022Z,101619.28
2023-05-16T08:19:16.006Z,101623.47
2023-05-16T08:21:44.043Z,101616.34
2023-05-16T08:24:12.248Z,101614.72
2023-05-16T08:26:40.189Z,101626.91
2023-05-16T08:29:08.247Z,101615.97
2023-05-16T08:31:39.983Z,101615.94
2023-05-16T08:34:10.485Z,101614.31
2023-05-16T08:36:39.014Z,101618.94
2023-05-16T08:39:08.939Z,101612.38
2023-05-16T08:41:38.251Z,101614.38
2023-05-16T08:44:06.855Z,101626.69
2023-05-16T08:46:36.863Z,101617.69
2023-05-16T08:49:08.049Z,101623.28
2023-05-16T08:51:39.563Z,101633.56
2023-05-16T08:54:13.783Z,101627.41
2023-05-16T08:56:42.614Z,101631.44
2023-05-16T08:59:11.550Z,101626.16
2023-05-16T09:01:39.713Z,101635.00
2023-05-16T09:04:09.249Z,101630.06
2023-05-16T09:06:38.934Z,101630.91
2023-05-16T09:09:08.220Z,101626.41
2023-05-16T09:11:37.081Z,101628.47
2023-05-16T09:14:05.676Z,101617.00
2023-05-16T09:16:33.582Z,101612.81
2023-05-16T09:19:02.858Z,101628.69
2023-05-16T09:21:33.658Z,101618.78
2023-05-16T09:24:06.174Z,101618.09
2023-05-16T09:26:34.386Z,101628.03
2023-05-16T09:29:02.724Z,101627.19
2023-05-16T09:31:36.901Z,101617.28
2023-05-16T09:34:16.015Z,101610.03
2023-05-16T09:50:21.355Z,101612.16
2023-05-16T09:53:11.537Z,101607.91
2023-05-16T09:55:39.389Z,101610.19
2023-05-16T09:58:07.422Z,101609.75
2023-05-16T10:00:35.721Z,101611.00
2023-05-16T10:03:05.732Z,101605.00
2023-05-16T10:05:35.613Z,101601.06
2023-05-16T10:08:04.745Z,101618.22
2023-05-16T10:10:37.492Z,101616.84
2023-05-16T10:13:08.286Z,101615.97
2023-05-16T10:15:38.356Z,101604.06
2023-05-16T10:18:12.107Z,101610.59
2023-05-16T10:20:42.784Z,101621.84
2023-05-16T10:23:16.598Z,101625.63
2023-05-16T10:25:46.843Z,101620.56
2023-05-16T10:28:16.279Z,101625.56
2023-05-16T10:30:45.847Z,101624.81
2023-05-16T10:33:15.051Z,101628.22
2023-05-16T10:35:43.358Z,101617.63
2023-05-16T10:38:12.535Z,101620.72
2023-05-16T10:40:43.771Z,101612.88
2023-05-16T10:43:24.713Z,101619.56
2023-05-16T10:45:56.510Z,101616.28
2023-05-16T10:48:30.558Z,101615.69
2023-05-16T10:50:58.681Z,101623.13
2023-05-16T10:53:31.930Z,101618.47
2023-05-16T10:56:11.400Z,101616.91
2023-05-16T10:58:45.412Z,101622.56
2023-05-16T11:01:22.121Z,101628.25
2023-05-16T11:04:11.274Z,101629.41
2023-05-16T11:06:47.782Z,101631.31
2023-05-16T11:09:28.058Z,101634.94
2023-05-16T11:12:06.459Z,101634.94
2023-05-16T11:14:42.296Z,101646.00
2023-05-16T11:17:12.204Z,101639.91
2023-05-16T11:19:45.155Z,101638.03
2023-05-16T11:22:31.154Z,101637.44
2023-05-16T11:25:01.761Z,101635.84
2023-05-16T11:27:31.689Z,101635.84
2023-05-16T11:30:15.513Z,101624.13
2023-05-16T11:32:44.961Z,101622.53
2023-05-16T11:35:14.937Z,101618.75
2023-05-16T11:37:44.212Z,101625.81
2023-05-16T11:40:14.052Z,101616.38
2023-05-16T11:42:44.065Z,101622.63
2023-05-16T11:45:16.540Z,101614.91
2023-05-16T11:47:48.119Z,101622.47
2023-05-16T11:50:18.028Z,101621.13
2023-05-16T11:52:48.643Z,101621.38
2023-05-16T11:55:28.214Z,101617.13
2023-05-16T11:58:06.809Z,101621.47
2023-05-16T12:00:36.330Z,101611.72
2023-05-16T12:03:06.377Z,101621.41
2023-05-16T12:05:35.784Z,101630.28
2023-05-16T12:08:05.787Z,101632.72
2023-05-16T12:10:35.266Z,101632.56
2023-05-16T12:14:02.107Z,101639.09
2023-05-16T12:16:44.592Z,101634.28
2023-05-16T12:19:15.476Z,101641.41
2023-05-16T12:21:51.351Z,101635.00
2023-05-16T12:24:47.816Z,101638.81
2023-05-16T12:28:31.733Z,101635.66
2023-05-16T12:31:05.746Z,101636.53
2023-05-16T12:33:38.629Z,101635.16
2023-05-16T12:36:14.469Z,101628.91
2023-05-16T12:38:43.300Z,101625.13
2023-05-16T12:41:11.310Z,101616.53
2023-05-16T12:43:39.397Z,101619.00
2023-05-16T12:46:12.534Z,101603.66
2023-05-16T12:48:44.129Z,101608.31
2023-05-16T12:51:14.151Z,101615.44
2023-05-16T12:53:57.524Z,101610.16
2023-05-16T12:56:29.824Z,101600.00
2023-05-16T12:58:57.817Z,101610.25
2023-05-16T13:01:25.949Z,101608.03
2023-05-16T13:03:55.521Z,101615.88
2023-05-16T13:06:23.795Z,101618.28
2023-05-16T13:08:51.761Z,101609.69
2023-05-16T13:11:19.986Z,101600.94
2023-05-16T13:13:47.981Z,101605.09
2023-05-16T13:16:25.560Z,101607.38
2023-05-16T13:23:22.450Z,101606.03
2023-05-16T13:25:50.695Z,101613.00
2023-05-16T13:28:18.592Z,101605.06
2023-05-16T13:30:46.809Z,101599.38
2023-05-16T13:33:14.913Z,101604.56
2023-05-16T13:35:43.196Z,101597.69
2023-05-16T13:38:11.215Z,101617.59
2023-05-16T13:40:42.905Z,101610.88
2023-05-16T13:43:11.197Z,101605.50
2023-05-16T13:45:39.139Z,101604.31
2023-05-16T13:48:07.998Z,101606.06
2023-05-16T13:50:36.275Z,101612.47
2023-05-16T13:53:04.482Z,101609.69
2023-05-16T13:55:32.420Z,101615.38
2023-05-16T13:58:02.561Z,101612.63
2023-05-16T14:00:43.447Z,101611.91
2023-05-16T14:03:14.615Z,101609.28
2023-05-16T14:05:42.927Z,101607.59
2023-05-16T14:08:10.889Z,101619.69
2023-05-16T14:10:38.793Z,101626.25
2023-05-16T14:13:08.188Z,101631.78
2023-05-16T14:15:36.088Z,101645.06
2023-05-16T14:18:04.915Z,101636.03
2023-05-16T14:20:40.042Z,101641.91
2023-05-16T14:23:08.036Z,101645.16
2023-05-16T14:25:36.225Z,101637.19
2023-05-16T14:28:04.173Z,101632.97
2023-05-16T14:30:33.405Z,101645.94
2023-05-16T14:33:02.268Z,101635.53
2023-05-16T14:35:31.270Z,101644.13
2023-05-16T14:37:59.633Z,101639.09
2023-05-16T14:40:27.935Z,101634.88
2023-05-16T14:42:55.880Z,101632.47
2023-05-16T14:45:23.752Z,101641.06
2023-05-16T14:47:53.591Z,101638.44
2023-05-16T14:50:21.691Z,101634.44
2023-05-16T14:52:50.006Z,101630.06
2023-05-16T14:55:18.155Z,101634.16
2023-05-16T14:57:46.208Z,101637.22
2023-05-16T15:00:25.046Z,101643.97
2023-05-16T15:02:54.674Z,101644.28
2023-05-16T15:05:25.852Z,101649.22
2023-05-16T15:07:53.893Z,101644.34
2023-05-16T15:10:21.768Z,101641.19
2023-05-16T15:12:49.756Z,101652.53
2023-05-16T15:15:17.832Z,101648.19
2023-05-16T15:17:45.691Z,101653.16
2023-05-16T15:20:15.721Z,101666.25
2023-05-16T15:22:43.588Z,101669.31
2023-05-16T15:25:12.178Z,101669.31
2023-05-16T15:27:40.221Z,101667.59
2023-05-16T15:30:09.765Z,101679.34
2023-05-16T15:32:37.796Z,101666.56
2023-05-16T15:35:06.721Z,101665.53
2023-05-16T15:37:36.043Z,101674.69
2023-05-16T15:40:05.824Z,101684.19
2023-05-16T15:42:33.754Z,101674.16
2023-05-16T15:45:01.623Z,101684.47
2023-05-16T15:47:29.609Z,101681.88
2023-05-16T15:49:57.594Z,101687.53
2023-05-16T15:52:25.480Z,101685.09
2023-05-16T15:54:54.862Z,101695.13
2023-05-16T15:57:23.276Z,101700.09
2023-05-16T15:59:51.212Z,101696.75
2023-05-16T16:02:19.089Z,101702.59
2023-05-16T16:04:49.146Z,101698.09
2023-05-16T16:07:17.045Z,101713.06
2023-05-16T16:09:45.457Z,101707.00
2023-05-16T16:12:14.655Z,101708.00
2023-05-16T16:14:42.599Z,101712.94
2023-05-16T16:17:10.560Z,101708.59
2023-05-16T16:19:38.425Z,101708.91
2023-05-16T16:22:06.485Z,101718.34
2023-05-16T16:25:00.856Z,101716.91
2023-05-16T16:27:38.659Z,101727.50
2023-05-16T16:30:07.815Z,101723.19
2023-05-16T16:32:35.751Z,101730.88
2023-05-16T16:35:05.354Z,101729.25
2023-05-16T16:37:33.539Z,101736.13
2023-05-16T16:40:01.732Z,101732.78
2023-05-16T16:42:30.520Z,101744.28
2023-05-16T16:45:00.049Z,101742.66
2023-05-16T16:47:28.496Z,101749.53
2023-05-16T16:49:56.476Z,101747.03
2023-05-16T16:52:24.356Z,101747.31
2023-05-16T16:54:52.301Z,101743.13
2023-05-16T16:57:20.181Z,101747.78
2023-05-16T16:59:49.021Z,101746.19
2023-05-16T17:02:18.374Z,101753.56
2023-05-16T17:04:46.881Z,101754.91
2023-05-16T17:07:14.807Z,101752.28
2023-05-16T17:09:43.031Z,101758.97
2023-05-16T17:12:18.801Z,101751.69
2023-05-16T17:14:47.661Z,101757.53
2023-05-16T17:17:15.936Z,101763.03
2023-05-16T17:19:48.105Z,101762.16
2023-05-16T17:22:16.038Z,101761.00
2023-05-16T17:24:43.948Z,101763.59
2023-05-16T17:27:13.466Z,101767.41
2023-05-16T17:29:41.395Z,101774.81
2023-05-16T17:32:09.630Z,101774.81
2023-05-16T17:34:37.612Z,101781.47
2023-05-16T17:37:07.335Z,101783.06
2023-05-16T17:39:35.507Z,101777.84
2023-05-16T17:42:05.542Z,101779.72
2023-05-16T17:44:33.469Z,101775.22
2023-05-16T17:47:01.503Z,101776.38
2023-05-16T17:49:29.435Z,101782.75
2023-05-16T17:51:58.267Z,101774.78
2023-05-16T17:54:32.062Z,101778.41
2023-05-16T17:57:00.429Z,101784.22
2023-05-16T17:59:28.484Z,101777.81
2023-05-16T18:01:57.415Z,101773.31
2023-05-16T18:04:25.617Z,101775.38
2023-05-16T18:06:54.341Z,101780.13
2023-05-16T18:09:22.511Z,101792.16
2023-05-16T18:11:51.901Z,101781.13
2023-05-16T18:14:21.049Z,101789.69
2023-05-16T18:16:48.960Z,101792.75
2023-05-16T18:19:17.169Z,101792.00
2023-05-16T18:21:45.306Z,101798.53
2023-05-16T18:24:13.545Z,101804.19
2023-05-16T18:26:41.994Z,101793.28
2023-05-16T18:29:11.829Z,101799.66
2023-05-16T18:31:42.324Z,101797.22
2023-05-16T18:34:11.402Z,101800.25
2023-05-16T18:36:39.524Z,101796.75
2023-05-16T18:39:07.563Z,101793.28
2023-05-16T18:41:35.548Z,101798.94
2023-05-16T18:44:03.510Z,101787.16
2023-05-16T18:46:32.763Z,101796.31
2023-05-16T18:49:00.997Z,101795.72
2023-05-16T18:51:28.915Z,101802.22
2023-05-16T18:53:56.829Z,101805.00
2023-05-16T18:56:24.782Z,101806.03
2023-05-16T18:58:52.932Z,101810.81
2023-05-16T19:01:22.380Z,101807.19
2023-05-16T19:03:54.827Z,101819.94
2023-05-16T19:06:22.842Z,101818.34
2023-05-16T19:08:50.824Z,101814.72
2023-05-16T19:11:19.059Z,101810.19
2023-05-16T19:13:47.285Z,101819.34
2023-05-16T19:16:15.488Z,101812.09
2023-05-16T19:18:43.506Z,101812.25
2023-05-16T19:21:13.599Z,101823.09
2023-05-16T19:23:41.957Z,101816.16
2023-05-16T19:26:10.031Z,101831.69
2023-05-16T19:28:40.630Z,101822.66
2023-05-16T19:31:09.181Z,101830.06
2023-05-16T19:33:38.111Z,101838.31
2023-05-16T19:36:07.259Z,101831.06
2023-05-16T19:38:36.844Z,101831.94
2023-05-16T19:41:05.005Z,101831.38
2023-05-16T19:43:36.952Z,101841.50
2023-05-16T19:46:06.813Z,101842.78
2023-05-16T19:48:35.399Z,101837.13
2023-05-16T19:51:03.853Z,101835.41
2023-05-16T19:53:32.081Z,101839.28
2023-05-16T19:56:02.698Z,101844.53
2023-05-16T19:58:31.491Z,101839.41
2023-05-16T20:01:02.615Z,101847.69
2023-05-16T20:03:31.122Z,101842.34
2023-05-16T20:06:00.277Z,101836.09
2023-05-16T20:08:29.381Z,101845.97
2023-05-16T20:11:02.657Z,101853.38
2023-05-16T20:13:33.050Z,101848.13
2023-05-16T20:21:10.105Z,101857.19
2023-05-16T20:23:39.469Z,101852.56
2023-05-16T20:26:09.086Z,101859.69
2023-05-16T20:28:37.267Z,101864.31
2023-05-16T20:31:05.290Z,101870.72
2023-05-16T20:33:33.858Z,101859.94
2023-05-16T20:36:04.370Z,101858.06
2023-05-16T20:38:32.749Z,101860.25
2023-05-16T20:41:01.101Z,101869.22
2023-05-16T20:43:30.778Z,101867.47
2023-05-16T20:45:58.838Z,101864.13
2023-05-16T20:48:27.098Z,101875.16
2023-05-16T20:50:56.672Z,101866.03
2023-05-16T20:53:24.792Z,101871.53
2023-05-16T20:55:52.749Z,101874.53
2023-05-16T20:58:20.762Z,101878.91
2023-05-16T21:00:50.476Z,101875.28
2023-05-16T21:03:18.723Z,101883.69
2023-05-16T21:05:46.832Z,101879.19
2023-05-16T21:08:14.957Z,101875.72
2023-05-16T21:10:42.999Z,101878.47
2023-05-16T21:13:13.164Z,101874.84
2023-05-16T21:15:41.103Z,101879.72
2023-05-16T21:18:10.492Z,101887.84
2023-05-16T21:20:38.752Z,101879.81
2023-05-16T21:23:06.768Z,101879.81
2023-05-16T21:25:36.127Z,101880.13
2023-05-16T21:28:04.277Z,101875.59
2023-05-16T21:30:32.396Z,101874.72
2023-05-16T21:33:00.747Z,101879.50
2023-05-16T21:35:30.535Z,101872.09
2023-05-16T21:37:58.831Z,101876.00
2023-05-16T21:40:28.842Z,101881.63
2023-05-16T21:42:59.031Z,101883.53
2023-05-16T21:45:27.577Z,101887.28
2023-05-16T21:47:55.960Z,101889.31
2023-05-16T21:50:24.212Z,101884.06
2023-05-16T21:52:53.842Z,101882.31
2023-05-16T21:55:22.091Z,101884.34
2023-05-16T21:57:50.496Z,101892.97
2023-05-16T22:00:19.229Z,101891.09
2023-05-16T22:02:48.582Z,101887.88
2023-05-16T22:05:19.248Z,101890.91
2023-05-16T22:07:47.449Z,101888.28
2023-05-16T22:10:18.611Z,101896.53
2023-05-16T22:12:46.987Z,101893.19
2023-05-16T22:15:15.020Z,101893.44
2023-05-16T22:17:43.165Z,101903.44
2023-05-16T22:20:11.970Z,101903.56
2023-05-16T22:22:40.093Z,101891.97
2023-05-16T22:25:08.846Z,101898.34
2023-05-16T22:27:38.401Z,101898.47
2023-05-16T22:30:07.764Z,101893.97
2023-05-16T22:32:35.995Z,101903.34
2023-05-16T22:35:04.143Z,101898.97
2023-05-16T22:37:32.277Z,101916.53
2023-05-16T22:40:00.578Z,101919.41
2023-05-16T22:42:28.549Z,101915.03
2023-05-16T22:44:58.063Z,101914.16
2023-05-16T22:47:26.081Z,101914.44
2023-05-16T22:49:54.084Z,101915.56
2023-05-16T22:52:22.632Z,101914.94
2023-05-16T22:54:50.920Z,101914.94
2023-05-16T22:57:19.025Z,101919.84
2023-05-16T22:59:47.166Z,101919.94
2023-05-16T23:02:16.565Z,101921.72
2023-05-16T23:04:44.673Z,101916.56
2023-05-16T23:07:12.962Z,101923.94
2023-05-16T23:09:41.192Z,101921.59
2023-05-16T23:12:09.901Z,101929.72
2023-05-16T23:14:38.052Z,101930.84
2023-05-16T23:17:06.527Z,101922.84
2023-05-16T23:19:36.141Z,101929.38
2023-05-16T23:22:06.157Z,101933.38
2023-05-16T23:24:34.267Z,101934.34
2023-05-16T23:27:02.365Z,101935.34
2023-05-16T23:29:30.422Z,101934.72
2023-05-16T23:31:58.577Z,101939.34
2023-05-16T23:34:26.823Z,101939.72
2023-05-16T23:36:56.242Z,101935.09
2023-05-16T23:39:24.460Z,101943.63
2023-05-16T23:41:52.518Z,101943.75
2023-05-16T23:44:20.616Z,101946.84
2023-05-16T23:46:48.663Z,101936.00
2023-05-16T23:49:16.780Z,101950.59
2023-05-16T23:51:56.715Z,101940.00
2023-05-16T23:54:27.431Z,101951.88
2023-05-16T23:56:55.461Z,101951.22
2023-05-16T23:59:23.605Z,101953.84
